sensor_id;sensor_type;location;lat;lon;timestamp;pressure;altitude;pressure_sealevel;temperature;humidity
77118;BME280;66072;50.238;19.228;2023-02-20T00:01:04;99083.38;;;-0.23;86.15
77118;BME280;66072;50.238;19.228;2023-02-20T00:03:31;99082.37;;;-0.23;86.28
77118;BME280;66072;50.238;19.228;2023-02-20T00:06:04;99080.02;;;-0.22;86.02
77118;BME280;66072;50.238;19.228;2023-02-20T00:08:32;99075.98;;;-0.21;86.06
77118;BME280;66072;50.238;19.228;2023-02-20T00:10:59;99076.33;;;-0.19;86.04
77118;BME280;66072;50.238;19.228;2023-02-20T00:13:27;99071.31;;;-0.17;85.89
77118;BME280;66072;50.238;19.228;2023-02-20T00:15:55;99072.83;;;-0.14;85.84
77118;BME280;66072;50.238;19.228;2023-02-20T00:18:22;99068.33;;;-0.12;85.68
77118;BME280;66072;50.238;19.228;2023-02-20T00:20:50;99063.11;;;-0.11;85.48
77118;BME280;66072;50.238;19.228;2023-02-20T00:23:18;99064.45;;;-0.08;85.57
77118;BME280;66072;50.238;19.228;2023-02-20T00:25:45;99063.29;;;-0.07;85.48
77118;BME280;66072;50.238;19.228;2023-02-20T00:28:13;99060.27;;;-0.07;85.37
77118;BME280;66072;50.238;19.228;2023-02-20T00:30:41;99056.09;;;-0.06;85.32
77118;BME280;66072;50.238;19.228;2023-02-20T00:33:08;99060.30;;;-0.05;85.35
77118;BME280;66072;50.238;19.228;2023-02-20T00:35:36;99066.02;;;-0.06;85.23
77118;BME280;66072;50.238;19.228;2023-02-20T00:38:03;99061.30;;;-0.04;85.32
77118;BME280;66072;50.238;19.228;2023-02-20T00:40:31;99060.47;;;-0.03;85.15
77118;BME280;66072;50.238;19.228;2023-02-20T00:42:59;99063.32;;;-0.02;85.10
77118;BME280;66072;50.238;19.228;2023-02-20T00:45:27;99057.46;;;0.00;85.05
77118;BME280;66072;50.238;19.228;2023-02-20T00:47:55;99058.81;;;0.02;85.15
77118;BME280;66072;50.238;19.228;2023-02-20T00:50:22;99057.98;;;0.01;85.06
77118;BME280;66072;50.238;19.228;2023-02-20T00:52:50;99060.83;;;0.02;84.97
77118;BME280;66072;50.238;19.228;2023-02-20T00:55:18;99059.33;;;0.03;84.95
77118;BME280;66072;50.238;19.228;2023-02-20T00:57:45;99055.79;;;0.03;84.99
77118;BME280;66072;50.238;19.228;2023-02-20T01:00:26;99059.48;;;0.02;85.01
77118;BME280;66072;50.238;19.228;2023-02-20T01:02:54;99067.89;;;0.03;85.06
77118;BME280;66072;50.238;19.228;2023-02-20T01:05:22;99069.58;;;0.02;85.05
77118;BME280;66072;50.238;19.228;2023-02-20T01:07:50;99072.61;;;0.04;85.07
77118;BME280;66072;50.238;19.228;2023-02-20T01:10:17;99070.75;;;0.04;85.10
77118;BME280;66072;50.238;19.228;2023-02-20T01:12:45;99066.73;;;0.05;84.83
77118;BME280;66072;50.238;19.228;2023-02-20T01:15:14;99069.76;;;0.07;84.92
77118;BME280;66072;50.238;19.228;2023-02-20T01:17:41;99069.27;;;0.07;84.97
77118;BME280;66072;50.238;19.228;2023-02-20T01:20:09;99068.25;;;0.07;85.06
77118;BME280;66072;50.238;19.228;2023-02-20T01:22:37;99067.09;;;0.07;85.00
77118;BME280;66072;50.238;19.228;2023-02-20T01:25:05;99067.08;;;0.07;85.08
77118;BME280;66072;50.238;19.228;2023-02-20T01:27:33;99062.20;;;0.07;85.16
77118;BME280;66072;50.238;19.228;2023-02-20T01:30:00;99052.95;;;0.06;85.06
77118;BME280;66072;50.238;19.228;2023-02-20T01:32:28;99059.67;;;0.07;85.08
77118;BME280;66072;50.238;19.228;2023-02-20T01:34:55;99060.86;;;0.07;85.12
77118;BME280;66072;50.238;19.228;2023-02-20T01:37:23;99063.38;;;0.07;85.16
77118;BME280;66072;50.238;19.228;2023-02-20T01:39:51;99065.23;;;0.07;85.10
77118;BME280;66072;50.238;19.228;2023-02-20T01:42:21;99060.68;;;0.07;85.33
77118;BME280;66072;50.238;19.228;2023-02-20T01:44:50;99054.80;;;0.07;85.30
77118;BME280;66072;50.238;19.228;2023-02-20T01:47:20;99049.09;;;0.07;85.29
77118;BME280;66072;50.238;19.228;2023-02-20T01:49:55;99042.67;;;0.06;85.33
77118;BME280;66072;50.238;19.228;2023-02-20T01:52:26;99043.52;;;0.06;85.14
77118;BME280;66072;50.238;19.228;2023-02-20T01:55:15;99049.59;;;0.07;85.27
77118;BME280;66072;50.238;19.228;2023-02-20T01:57:50;99052.09;;;0.06;85.33
77118;BME280;66072;50.238;19.228;2023-02-20T02:00:21;99048.55;;;0.06;85.33
77118;BME280;66072;50.238;19.228;2023-02-20T02:02:59;99051.92;;;0.06;85.41
77118;BME280;66072;50.238;19.228;2023-02-20T02:05:29;99045.88;;;0.07;85.22
77118;BME280;66072;50.238;19.228;2023-02-20T02:07:59;99036.81;;;0.08;84.97
77118;BME280;66072;50.238;19.228;2023-02-20T02:10:36;99019.16;;;0.09;85.10
77118;BME280;66072;50.238;19.228;2023-02-20T02:13:06;99007.55;;;0.10;84.92
77118;BME280;66072;50.238;19.228;2023-02-20T02:15:34;99004.02;;;0.10;85.15
77118;BME280;66072;50.238;19.228;2023-02-20T02:21:08;98998.81;;;0.10;84.79
77118;BME280;66072;50.238;19.228;2023-02-20T02:37:55;98975.27;;;0.13;84.58
77118;BME280;66072;50.238;19.228;2023-02-20T02:43:37;98966.52;;;0.10;84.55
77118;BME280;66072;50.238;19.228;2023-02-20T02:46:32;98962.66;;;0.08;84.68
77118;BME280;66072;50.238;19.228;2023-02-20T02:49:08;98969.21;;;0.07;84.67
77118;BME280;66072;50.238;19.228;2023-02-20T02:51:39;98977.29;;;0.08;84.46
77118;BME280;66072;50.238;19.228;2023-02-20T02:54:15;98986.36;;;0.08;84.59
77118;BME280;66072;50.238;19.228;2023-02-20T02:56:45;98978.96;;;0.09;84.35
77118;BME280;66072;50.238;19.228;2023-02-20T02:59:24;98974.42;;;0.10;84.28
77118;BME280;66072;50.238;19.228;2023-02-20T03:02:00;98980.64;;;0.11;84.41
77118;BME280;66072;50.238;19.228;2023-02-20T03:04:31;98987.71;;;0.11;84.13
77118;BME280;66072;50.238;19.228;2023-02-20T03:07:06;98982.49;;;0.12;84.28
77118;BME280;66072;50.238;19.228;2023-02-20T03:09:39;98979.98;;;0.11;84.13
77118;BME280;66072;50.238;19.228;2023-02-20T03:12:11;98974.92;;;0.11;84.27
77118;BME280;66072;50.238;19.228;2023-02-20T03:19:47;98952.23;;;0.08;84.28
77118;BME280;66072;50.238;19.228;2023-02-20T03:22:28;98940.29;;;0.07;84.31
77118;BME280;66072;50.238;19.228;2023-02-20T03:25:03;98931.18;;;0.06;84.19
77118;BME280;66072;50.238;19.228;2023-02-20T03:27:50;98930.00;;;0.04;84.27
77118;BME280;66072;50.238;19.228;2023-02-20T03:30:33;98934.73;;;0.02;84.14
77118;BME280;66072;50.238;19.228;2023-02-20T03:33:11;98934.05;;;0.01;84.17
77118;BME280;66072;50.238;19.228;2023-02-20T03:35:41;98933.85;;;-0.01;84.33
77118;BME280;66072;50.238;19.228;2023-02-20T03:38:12;98937.55;;;-0.03;84.41
77118;BME280;66072;50.238;19.228;2023-02-20T03:40:40;98939.07;;;-0.05;84.35
77118;BME280;66072;50.238;19.228;2023-02-20T03:43:12;98939.05;;;-0.07;84.20
77118;BME280;66072;50.238;19.228;2023-02-20T03:45:42;98941.23;;;-0.11;84.40
77118;BME280;66072;50.238;19.228;2023-02-20T03:48:15;98944.73;;;-0.14;84.49
77118;BME280;66072;50.238;19.228;2023-02-20T03:50:46;98945.07;;;-0.18;84.48
77118;BME280;66072;50.238;19.228;2023-02-20T03:53:14;98946.05;;;-0.22;84.60
77118;BME280;66072;50.238;19.228;2023-02-20T03:55:42;98946.04;;;-0.25;84.73
77118;BME280;66072;50.238;19.228;2023-02-20T03:58:14;98941.14;;;-0.31;84.72
77118;BME280;66072;50.238;19.228;2023-02-20T04:00:47;98940.44;;;-0.37;84.91
77118;BME280;66072;50.238;19.228;2023-02-20T04:03:20;98938.23;;;-0.43;85.07
77118;BME280;66072;50.238;19.228;2023-02-20T04:05:52;98932.47;;;-0.50;85.12
77118;BME280;66072;50.238;19.228;2023-02-20T04:08:25;98931.42;;;-0.57;85.57
77118;BME280;66072;50.238;19.228;2023-02-20T04:10:58;98928.70;;;-0.63;85.59
77118;BME280;66072;50.238;19.228;2023-02-20T04:13:28;98929.67;;;-0.69;85.91
77118;BME280;66072;50.238;19.228;2023-02-20T04:15:59;98936.20;;;-0.74;86.20
77118;BME280;66072;50.238;19.228;2023-02-20T04:18:28;98936.84;;;-0.78;86.34
77118;BME280;66072;50.238;19.228;2023-02-20T04:20:57;98934.30;;;-0.82;86.36
77118;BME280;66072;50.238;19.228;2023-02-20T04:23:25;98932.42;;;-0.86;86.60
77118;BME280;66072;50.238;19.228;2023-02-20T04:26:01;98933.58;;;-0.90;86.71
77118;BME280;66072;50.238;19.228;2023-02-20T04:28:31;98927.66;;;-0.95;86.99
77118;BME280;66072;50.238;19.228;2023-02-20T04:30:58;98928.13;;;-0.98;87.03
77118;BME280;66072;50.238;19.228;2023-02-20T04:33:26;98925.93;;;-1.02;87.10
77118;BME280;66072;50.238;19.228;2023-02-20T04:35:53;98922.21;;;-1.05;87.33
77118;BME280;66072;50.238;19.228;2023-02-20T04:38:21;98917.00;;;-1.08;87.39
77118;BME280;66072;50.238;19.228;2023-02-20T04:40:49;98910.09;;;-1.11;87.43
77118;BME280;66072;50.238;19.228;2023-02-20T04:43:16;98909.41;;;-1.12;87.66
77118;BME280;66072;50.238;19.228;2023-02-20T04:45:44;98911.42;;;-1.12;87.76
77118;BME280;66072;50.238;19.228;2023-02-20T04:48:12;98910.58;;;-1.15;87.82
77118;BME280;66072;50.238;19.228;2023-02-20T04:50:39;98907.55;;;-1.15;88.31
77118;BME280;66072;50.238;19.228;2023-02-20T04:53:07;98906.39;;;-1.14;88.31
77118;BME280;66072;50.238;19.228;2023-02-20T04:55:35;98903.02;;;-1.13;88.39
77118;BME280;66072;50.238;19.228;2023-02-20T04:58:02;98899.34;;;-1.12;88.19
77118;BME280;66072;50.238;19.228;2023-02-20T05:00:30;98894.14;;;-1.13;88.21
77118;BME280;66072;50.238;19.228;2023-02-20T05:02:58;98883.72;;;-1.15;88.27
77118;BME280;66072;50.238;19.228;2023-02-20T05:05:27;98888.08;;;-1.16;88.22
77118;BME280;66072;50.238;19.228;2023-02-20T05:08:00;98891.08;;;-1.17;88.08
77118;BME280;66072;50.238;19.228;2023-02-20T05:10:29;98891.58;;;-1.17;88.21
77118;BME280;66072;50.238;19.228;2023-02-20T05:12:57;98889.92;;;-1.16;88.20
77118;BME280;66072;50.238;19.228;2023-02-20T05:15:25;98884.23;;;-1.14;88.37
77118;BME280;66072;50.238;19.228;2023-02-20T05:17:53;98876.67;;;-1.13;88.07
77118;BME280;66072;50.238;19.228;2023-02-20T05:20:22;98872.85;;;-1.10;88.11
77118;BME280;66072;50.238;19.228;2023-02-20T05:22:49;98869.67;;;-1.07;87.99
77118;BME280;66072;50.238;19.228;2023-02-20T05:25:17;98874.73;;;-1.03;87.97
77118;BME280;66072;50.238;19.228;2023-02-20T05:27:45;98869.05;;;-0.98;87.73
77118;BME280;66072;50.238;19.228;2023-02-20T05:30:12;98866.23;;;-0.93;87.48
77118;BME280;66072;50.238;19.228;2023-02-20T05:32:40;98865.59;;;-0.88;87.54
77118;BME280;66072;50.238;19.228;2023-02-20T05:35:07;98866.95;;;-0.83;87.31
77118;BME280;66072;50.238;19.228;2023-02-20T05:37:35;98863.80;;;-0.78;86.94
77118;BME280;66072;50.238;19.228;2023-02-20T05:40:03;98862.63;;;-0.74;86.91
77118;BME280;66072;50.238;19.228;2023-02-20T05:42:30;98867.86;;;-0.71;86.99
77118;BME280;66072;50.238;19.228;2023-02-20T05:44:58;98876.27;;;-0.70;86.65
77118;BME280;66072;50.238;19.228;2023-02-20T05:47:26;98879.98;;;-0.68;86.70
77118;BME280;66072;50.238;19.228;2023-02-20T05:49:53;98875.11;;;-0.66;86.40
77118;BME280;66072;50.238;19.228;2023-02-20T05:52:21;98871.93;;;-0.64;86.43
77118;BME280;66072;50.238;19.228;2023-02-20T05:54:49;98876.48;;;-0.62;86.10
77118;BME280;66072;50.238;19.228;2023-02-20T05:57:16;98881.20;;;-0.60;86.04
77118;BME280;66072;50.238;19.228;2023-02-20T05:59:44;98883.55;;;-0.58;85.86
77118;BME280;66072;50.238;19.228;2023-02-20T06:02:12;98889.92;;;-0.57;86.04
77118;BME280;66072;50.238;19.228;2023-02-20T06:04:39;98887.58;;;-0.57;85.71
77118;BME280;66072;50.238;19.228;2023-02-20T06:07:07;98885.23;;;-0.57;85.72
77118;BME280;66072;50.238;19.228;2023-02-20T06:09:35;98883.89;;;-0.58;85.83
77118;BME280;66072;50.238;19.228;2023-02-20T06:12:03;98881.36;;;-0.58;85.78
77118;BME280;66072;50.238;19.228;2023-02-20T06:14:30;98887.41;;;-0.58;85.66
77118;BME280;66072;50.238;19.228;2023-02-20T06:16:58;98888.25;;;-0.57;85.82
77118;BME280;66072;50.238;19.228;2023-02-20T06:19:25;98895.00;;;-0.52;85.56
77118;BME280;66072;50.238;19.228;2023-02-20T06:21:54;98899.23;;;-0.45;85.38
77118;BME280;66072;50.238;19.228;2023-02-20T06:24:21;98900.09;;;-0.40;85.31
77118;BME280;66072;50.238;19.228;2023-02-20T06:26:49;98894.58;;;-0.33;85.00
77118;BME280;66072;50.238;19.228;2023-02-20T06:29:17;98895.61;;;-0.26;84.72
77118;BME280;66072;50.238;19.228;2023-02-20T06:31:44;98891.94;;;-0.21;84.63
77118;BME280;66072;50.238;19.228;2023-02-20T06:34:13;98889.77;;;-0.18;84.43
77118;BME280;66072;50.238;19.228;2023-02-20T06:36:41;98890.94;;;-0.14;84.38
77118;BME280;66072;50.238;19.228;2023-02-20T06:39:13;98891.30;;;-0.11;84.46
77118;BME280;66072;50.238;19.228;2023-02-20T06:41:41;98881.55;;;-0.06;84.30
77118;BME280;66072;50.238;19.228;2023-02-20T06:44:09;98878.54;;;-0.02;84.05
77118;BME280;66072;50.238;19.228;2023-02-20T06:46:36;98865.27;;;0.04;84.00
77118;BME280;66072;50.238;19.228;2023-02-20T06:49:04;98863.44;;;0.09;83.54
77118;BME280;66072;50.238;19.228;2023-02-20T06:51:33;98862.60;;;0.14;83.49
77118;BME280;66072;50.238;19.228;2023-02-20T06:54:02;98864.29;;;0.19;83.18
77118;BME280;66072;50.238;19.228;2023-02-20T06:56:32;98862.45;;;0.23;83.21
77118;BME280;66072;50.238;19.228;2023-02-20T06:59:02;98865.65;;;0.27;83.08
77118;BME280;66072;50.238;19.228;2023-02-20T07:01:36;98868.17;;;0.29;83.04
77118;BME280;66072;50.238;19.228;2023-02-20T07:04:05;98870.70;;;0.31;82.90
77118;BME280;66072;50.238;19.228;2023-02-20T07:06:33;98875.59;;;0.35;83.07
77118;BME280;66072;50.238;19.228;2023-02-20T07:09:01;98873.06;;;0.40;82.92
77118;BME280;66072;50.238;19.228;2023-02-20T07:11:28;98864.98;;;0.46;82.61
77118;BME280;66072;50.238;19.228;2023-02-20T07:13:56;98867.52;;;0.55;82.84
77118;BME280;66072;50.238;19.228;2023-02-20T07:16:24;98861.63;;;0.64;82.36
77118;BME280;66072;50.238;19.228;2023-02-20T07:18:51;98860.27;;;0.75;82.00
77118;BME280;66072;50.238;19.228;2023-02-20T07:21:19;98849.98;;;0.85;81.74
77118;BME280;66072;50.238;19.228;2023-02-20T07:23:47;98854.52;;;0.92;81.35
77118;BME280;66072;50.238;19.228;2023-02-20T07:26:20;98852.48;;;1.01;81.20
77118;BME280;66072;50.238;19.228;2023-02-20T07:28:48;98851.12;;;1.13;81.05
77118;BME280;66072;50.238;19.228;2023-02-20T07:31:15;98839.98;;;1.22;80.25
77118;BME280;66072;50.238;19.228;2023-02-20T07:33:43;98832.86;;;1.31;80.07
77118;BME280;66072;50.238;19.228;2023-02-20T07:36:14;98829.98;;;1.41;79.94
77118;BME280;66072;50.238;19.228;2023-02-20T07:38:42;98826.06;;;1.49;79.81
77118;BME280;66072;50.238;19.228;2023-02-20T07:41:10;98820.64;;;1.55;79.13
77118;BME280;66072;50.238;19.228;2023-02-20T07:43:37;98816.05;;;1.61;79.26
77118;BME280;66072;50.238;19.228;2023-02-20T07:46:05;98813.67;;;1.66;79.24
77118;BME280;66072;50.238;19.228;2023-02-20T07:48:32;98815.17;;;1.69;78.67
77118;BME280;66072;50.238;19.228;2023-02-20T07:51:00;98818.85;;;1.75;79.19
77118;BME280;66072;50.238;19.228;2023-02-20T07:53:28;98813.60;;;1.80;79.02
77118;BME280;66072;50.238;19.228;2023-02-20T07:55:55;98802.60;;;1.84;78.33
77118;BME280;66072;50.238;19.228;2023-02-20T07:58:23;98794.81;;;1.90;78.15
77118;BME280;66072;50.238;19.228;2023-02-20T08:00:50;98786.81;;;2.00;78.10
77118;BME280;66072;50.238;19.228;2023-02-20T08:03:18;98784.88;;;2.12;78.62
77118;BME280;66072;50.238;19.228;2023-02-20T08:05:46;98774.81;;;2.26;78.08
77118;BME280;66072;50.238;19.228;2023-02-20T08:08:16;98777.39;;;2.41;77.82
77118;BME280;66072;50.238;19.228;2023-02-20T08:10:44;98782.16;;;2.54;77.73
77118;BME280;66072;50.238;19.228;2023-02-20T08:13:11;98793.08;;;2.61;77.10
77118;BME280;66072;50.238;19.228;2023-02-20T08:15:39;98792.00;;;2.68;77.13
77118;BME280;66072;50.238;19.228;2023-02-20T08:18:06;98793.45;;;2.75;77.10
77118;BME280;66072;50.238;19.228;2023-02-20T08:20:49;98790.57;;;2.76;77.05
77118;BME280;66072;50.238;19.228;2023-02-20T08:23:22;98795.81;;;2.75;77.00
77118;BME280;66072;50.238;19.228;2023-02-20T08:25:50;98796.48;;;2.77;77.30
77118;BME280;66072;50.238;19.228;2023-02-20T08:28:19;98792.08;;;2.79;77.03
77118;BME280;66072;50.238;19.228;2023-02-20T08:30:46;98792.92;;;2.79;77.50
77118;BME280;66072;50.238;19.228;2023-02-20T08:33:14;98776.42;;;2.73;77.17
77118;BME280;66072;50.238;19.228;2023-02-20T08:35:42;98777.27;;;2.73;76.93
77118;BME280;66072;50.238;19.228;2023-02-20T08:38:27;98776.83;;;2.83;77.16
77118;BME280;66072;50.238;19.228;2023-02-20T08:40:56;98775.65;;;2.99;76.45
77118;BME280;66072;50.238;19.228;2023-02-20T08:43:24;98782.56;;;3.14;76.57
77118;BME280;66072;50.238;19.228;2023-02-20T08:45:55;98778.52;;;3.27;76.45
77118;BME280;66072;50.238;19.228;2023-02-20T08:48:23;98770.48;;;3.34;75.75
77118;BME280;66072;50.238;19.228;2023-02-20T08:50:51;98757.04;;;3.42;75.42
77118;BME280;66072;50.238;19.228;2023-02-20T08:53:18;98757.97;;;3.47;75.44
77118;BME280;66072;50.238;19.228;2023-02-20T08:55:46;98757.91;;;3.52;75.40
77118;BME280;66072;50.238;19.228;2023-02-20T08:58:18;98753.13;;;3.57;75.21
77118;BME280;66072;50.238;19.228;2023-02-20T09:00:46;98743.77;;;3.59;75.09
77118;BME280;66072;50.238;19.228;2023-02-20T09:03:14;98737.06;;;3.68;74.76
77118;BME280;66072;50.238;19.228;2023-02-20T09:05:42;98734.69;;;3.80;75.12
77118;BME280;66072;50.238;19.228;2023-02-20T09:08:10;98732.52;;;3.89;74.47
77118;BME280;66072;50.238;19.228;2023-02-20T09:10:37;98726.58;;;3.91;74.50
77118;BME280;66072;50.238;19.228;2023-02-20T09:13:05;98727.48;;;3.87;74.60
77118;BME280;66072;50.238;19.228;2023-02-20T09:15:33;98713.73;;;3.78;74.91
77118;BME280;66072;50.238;19.228;2023-02-20T09:18:00;98710.52;;;3.67;75.54
77118;BME280;66072;50.238;19.228;2023-02-20T09:20:28;98711.64;;;3.59;76.37
77118;BME280;66072;50.238;19.228;2023-02-20T09:22:57;98701.83;;;3.60;76.39
77118;BME280;66072;50.238;19.228;2023-02-20T09:25:25;98706.80;;;3.67;76.29
77118;BME280;66072;50.238;19.228;2023-02-20T09:27:53;98703.80;;;3.76;76.26
77118;BME280;66072;50.238;19.228;2023-02-20T09:30:21;98704.09;;;3.78;75.95
77118;BME280;66072;50.238;19.228;2023-02-20T09:32:49;98701.17;;;3.81;75.97
77118;BME280;66072;50.238;19.228;2023-02-20T09:35:26;98686.71;;;3.86;75.94
77118;BME280;66072;50.238;19.228;2023-02-20T09:37:55;98688.80;;;3.93;75.97
77118;BME280;66072;50.238;19.228;2023-02-20T09:40:26;98683.07;;;4.02;76.03
77118;BME280;66072;50.238;19.228;2023-02-20T09:46:18;98658.59;;;4.08;76.00
77118;BME280;66072;50.238;19.228;2023-02-20T09:49:13;98660.23;;;4.10;75.96
77118;BME280;66072;50.238;19.228;2023-02-20T09:51:44;98664.31;;;4.10;75.95
77118;BME280;66072;50.238;19.228;2023-02-20T09:57:00;98658.47;;;4.06;75.89
77118;BME280;66072;50.238;19.228;2023-02-20T09:59:37;98659.81;;;4.06;76.08
77118;BME280;66072;50.238;19.228;2023-02-20T10:02:27;98655.80;;;4.03;76.48
77118;BME280;66072;50.238;19.228;2023-02-20T10:04:58;98657.91;;;3.98;77.47
77118;BME280;66072;50.238;19.228;2023-02-20T10:07:34;98651.61;;;3.91;77.42
77118;BME280;66072;50.238;19.228;2023-02-20T10:15:41;98639.46;;;3.78;78.03
77118;BME280;66072;50.238;19.228;2023-02-20T10:21:00;98628.23;;;3.93;78.05
77118;BME280;66072;50.238;19.228;2023-02-20T10:23:51;98625.54;;;4.02;78.10
77118;BME280;66072;50.238;19.228;2023-02-20T10:26:34;98617.88;;;4.13;76.88
77118;BME280;66072;50.238;19.228;2023-02-20T10:29:24;98608.77;;;4.31;76.92
77118;BME280;66072;50.238;19.228;2023-02-20T10:32:15;98595.53;;;4.49;76.49
77118;BME280;66072;50.238;19.228;2023-02-20T10:34:57;98584.27;;;4.52;75.83
77118;BME280;66072;50.238;19.228;2023-02-20T10:37:33;98581.71;;;4.53;76.45
77118;BME280;66072;50.238;19.228;2023-02-20T10:42:57;98568.80;;;4.55;76.06
77118;BME280;66072;50.238;19.228;2023-02-20T10:45:36;98561.58;;;4.61;75.82
77118;BME280;66072;50.238;19.228;2023-02-20T10:48:07;98557.27;;;4.72;75.80
77118;BME280;66072;50.238;19.228;2023-02-20T10:50:53;98561.01;;;4.88;76.17
77118;BME280;66072;50.238;19.228;2023-02-20T10:53:33;98544.56;;;5.02;75.46
77118;BME280;66072;50.238;19.228;2023-02-20T10:56:21;98549.06;;;5.14;75.30
77118;BME280;66072;50.238;19.228;2023-02-20T10:59:05;98541.98;;;5.19;74.85
77118;BME280;66072;50.238;19.228;2023-02-20T11:01:35;98529.31;;;5.31;74.72
77118;BME280;66072;50.238;19.228;2023-02-20T11:07:04;98514.73;;;5.64;73.61
77118;BME280;66072;50.238;19.228;2023-02-20T11:09:34;98502.95;;;5.80;73.21
77118;BME280;66072;50.238;19.228;2023-02-20T11:12:02;98496.19;;;5.93;72.94
77118;BME280;66072;50.238;19.228;2023-02-20T11:17:19;98492.52;;;6.15;72.51
77118;BME280;66072;50.238;19.228;2023-02-20T11:19:51;98488.81;;;6.14;71.82
77118;BME280;66072;50.238;19.228;2023-02-20T11:22:41;98490.95;;;6.10;71.73
77118;BME280;66072;50.238;19.228;2023-02-20T11:25:20;98487.27;;;6.08;72.12
77118;BME280;66072;50.238;19.228;2023-02-20T11:27:54;98478.94;;;6.15;72.20
77118;BME280;66072;50.238;19.228;2023-02-20T11:30:56;98470.91;;;6.16;71.93
77118;BME280;66072;50.238;19.228;2023-02-20T11:33:25;98467.48;;;6.18;72.71
77118;BME280;66072;50.238;19.228;2023-02-20T11:35:58;98453.14;;;6.15;72.87
77118;BME280;66072;50.238;19.228;2023-02-20T11:38:35;98443.41;;;6.11;72.98
77118;BME280;66072;50.238;19.228;2023-02-20T11:41:27;98443.74;;;6.11;73.23
77118;BME280;66072;50.238;19.228;2023-02-20T11:46:38;98423.90;;;6.16;73.62
77118;BME280;66072;50.238;19.228;2023-02-20T11:49:09;98411.48;;;6.16;73.32
77118;BME280;66072;50.238;19.228;2023-02-20T11:54:11;98399.39;;;6.18;74.01
77118;BME280;66072;50.238;19.228;2023-02-20T11:57:00;98382.11;;;6.16;74.15
77118;BME280;66072;50.238;19.228;2023-02-20T11:59:38;98374.50;;;6.10;74.24
77118;BME280;66072;50.238;19.228;2023-02-20T12:04:45;98387.02;;;6.05;75.00
77118;BME280;66072;50.238;19.228;2023-02-20T12:10:34;98358.20;;;6.10;75.06
77118;BME280;66072;50.238;19.228;2023-02-20T12:13:05;98344.30;;;6.26;75.41
77118;BME280;66072;50.238;19.228;2023-02-20T12:15:33;98355.13;;;6.37;75.20
77118;BME280;66072;50.238;19.228;2023-02-20T12:20:54;98330.67;;;6.48;75.10
77118;BME280;66072;50.238;19.228;2023-02-20T12:23:49;98338.63;;;6.54;74.99
77118;BME280;66072;50.238;19.228;2023-02-20T12:29:04;98335.56;;;6.70;74.87
77118;BME280;66072;50.238;19.228;2023-02-20T12:34:57;98320.19;;;7.08;73.91
77118;BME280;66072;50.238;19.228;2023-02-20T12:37:38;98316.55;;;7.24;73.24
77118;BME280;66072;50.238;19.228;2023-02-20T12:40:26;98307.11;;;7.26;72.66
77118;BME280;66072;50.238;19.228;2023-02-20T12:46:16;98291.14;;;7.21;72.91
77118;BME280;66072;50.238;19.228;2023-02-20T12:49:17;98281.39;;;7.27;72.62
77118;BME280;66072;50.238;19.228;2023-02-20T12:54:49;98272.48;;;7.84;70.63
77118;BME280;66072;50.238;19.228;2023-02-20T12:57:36;98275.66;;;8.41;68.90
77118;BME280;66072;50.238;19.228;2023-02-20T13:02:58;98270.29;;;9.35;65.63
77118;BME280;66072;50.238;19.228;2023-02-20T13:05:30;98264.06;;;9.59;64.42
77118;BME280;66072;50.238;19.228;2023-02-20T13:08:04;98258.16;;;9.73;63.78
77118;BME280;66072;50.238;19.228;2023-02-20T13:10:59;98249.09;;;10.13;62.40
77118;BME280;66072;50.238;19.228;2023-02-20T13:13:30;98237.33;;;9.62;62.81
77118;BME280;66072;50.238;19.228;2023-02-20T13:16:18;98237.14;;;9.09;64.83
77118;BME280;66072;50.238;19.228;2023-02-20T13:19:03;98230.86;;;8.89;65.73
77118;BME280;66072;50.238;19.228;2023-02-20T13:21:32;98239.73;;;9.01;65.84
77118;BME280;66072;50.238;19.228;2023-02-20T13:26:52;98214.56;;;9.30;64.55
77118;BME280;66072;50.238;19.228;2023-02-20T13:29:26;98214.95;;;9.98;62.68
77118;BME280;66072;50.238;19.228;2023-02-20T13:31:57;98209.23;;;9.82;63.00
77118;BME280;66072;50.238;19.228;2023-02-20T13:34:29;98205.14;;;9.60;63.65
77118;BME280;66072;50.238;19.228;2023-02-20T13:36:57;98207.52;;;9.56;64.08
77118;BME280;66072;50.238;19.228;2023-02-20T13:39:36;98196.99;;;9.77;63.55
77118;BME280;66072;50.238;19.228;2023-02-20T13:42:25;98193.61;;;10.40;61.34
77118;BME280;66072;50.238;19.228;2023-02-20T13:44:52;98186.92;;;10.60;60.17
77118;BME280;66072;50.238;19.228;2023-02-20T13:47:30;98183.47;;;10.23;61.28
77118;BME280;66072;50.238;19.228;2023-02-20T13:49:59;98171.23;;;9.98;61.93
77118;BME280;66072;50.238;19.228;2023-02-20T13:52:41;98156.10;;;9.68;62.99
77118;BME280;66072;50.238;19.228;2023-02-20T14:00:40;98131.17;;;8.80;66.58
77118;BME280;66072;50.238;19.228;2023-02-20T14:03:19;98131.22;;;8.51;67.43
77118;BME280;66072;50.238;19.228;2023-02-20T14:06:00;98111.95;;;8.31;68.14
77118;BME280;66072;50.238;19.228;2023-02-20T14:08:28;98114.02;;;8.15;68.82
77118;BME280;66072;50.238;19.228;2023-02-20T14:11:23;98096.67;;;8.02;69.63
77118;BME280;66072;50.238;19.228;2023-02-20T14:13:53;98079.14;;;7.85;70.25
77118;BME280;66072;50.238;19.228;2023-02-20T14:16:31;98068.56;;;7.78;70.92
77118;BME280;66072;50.238;19.228;2023-02-20T14:19:14;98055.77;;;7.70;71.38
77118;BME280;66072;50.238;19.228;2023-02-20T14:21:43;98040.95;;;7.63;71.73
77118;BME280;66072;50.238;19.228;2023-02-20T14:24:20;98031.52;;;7.61;71.94
77118;BME280;66072;50.238;19.228;2023-02-20T14:26:49;98029.38;;;7.63;71.79
77118;BME280;66072;50.238;19.228;2023-02-20T14:29:30;98028.06;;;7.70;72.08
77118;BME280;66072;50.238;19.228;2023-02-20T14:32:00;98022.71;;;7.75;71.83
77118;BME280;66072;50.238;19.228;2023-02-20T14:34:36;98022.19;;;7.84;71.73
77118;BME280;66072;50.238;19.228;2023-02-20T14:40:42;98011.53;;;8.14;70.62
77118;BME280;66072;50.238;19.228;2023-02-20T14:43:19;98006.89;;;8.22;70.40
77118;BME280;66072;50.238;19.228;2023-02-20T14:45:59;98009.25;;;8.35;70.49
77118;BME280;66072;50.238;19.228;2023-02-20T14:48:36;98007.07;;;8.38;70.03
77118;BME280;66072;50.238;19.228;2023-02-20T14:51:20;98006.16;;;8.35;70.06